Time;durP1;ratioP1;P1;durP2;ratioP2;P2;SDS_P1;SDS_P2;PMS_P1;PMS_P2;Temp;Humidity;BMP_temperature;BMP_pressure;BME280_temperature;BME280_humidity;BME280_pressure;Samples;Min_cycle;Max_cycle;Signal;HPM_P1;HPM_P2
2021/09/23 00:00:21;;;;;;;59.92;26.50;;;9.30;99.90;;;;;;5109060;27;20019;-67
2021/09/23 00:02:48;;;;;;;54.85;23.73;;;9.40;99.90;;;;;;5109296;27;20015;-66
2021/09/23 00:05:17;;;;;;;61.35;23.45;;;9.20;99.90;;;;;;5114282;27;20023;-66
2021/09/23 00:07:43;;;;;;;62.17;23.90;;;9.20;99.90;;;;;;5110848;27;20257;-67
2021/09/23 00:10:11;;;;;;;53.60;23.65;;;9.00;99.90;;;;;;5108889;27;20028;-66
2021/09/23 00:12:37;;;;;;;54.58;24.90;;;9.10;99.90;;;;;;5111337;27;20077;-66
2021/09/23 00:15:05;;;;;;;54.35;25.60;;;9.00;99.90;;;;;;5115775;27;20486;-66
2021/09/23 00:17:30;;;;;;;54.67;24.95;;;9.00;99.90;;;;;;5114629;27;20043;-66
2021/09/23 00:19:56;;;;;;;60.95;26.40;;;9.10;99.90;;;;;;5116910;27;20023;-66
2021/09/23 00:22:22;;;;;;;56.08;25.65;;;8.90;99.90;;;;;;5110246;27;20051;-66
2021/09/23 00:24:47;;;;;;;66.82;27.23;;;8.90;99.90;;;;;;5118272;27;20024;-66
2021/09/23 00:27:13;;;;;;;71.57;28.95;;;8.90;99.90;;;;;;5107257;28;20086;-66
2021/09/23 00:29:39;;;;;;;67.97;27.85;;;9.00;99.90;;;;;;5109407;27;20020;-66
2021/09/23 00:32:05;;;;;;;72.57;29.30;;;9.00;99.90;;;;;;5107964;28;20100;-66
2021/09/23 00:34:30;;;;;;;69.82;29.23;;;8.90;99.90;;;;;;5118043;27;20024;-66
2021/09/23 00:36:56;;;;;;;73.22;30.35;;;8.80;99.90;;;;;;5117742;27;20027;-65
2021/09/23 00:39:23;;;;;;;67.00;29.35;;;8.80;99.90;;;;;;5113166;27;20098;-66
2021/09/23 00:41:50;;;;;;;65.35;27.63;;;8.80;99.90;;;;;;5117779;27;20027;-66
2021/09/23 00:44:19;;;;;;;79.05;31.63;;;8.80;99.90;;;;;;5111072;27;20024;-66
2021/09/23 00:46:46;;;;;;;76.75;31.35;;;8.70;99.90;;;;;;5119981;27;20039;-65
2021/09/23 00:49:11;;;;;;;67.82;29.27;;;8.70;99.90;;;;;;5115318;27;20032;-65
2021/09/23 00:51:38;;;;;;;68.60;28.70;;;9.00;99.90;;;;;;5119364;27;20064;-66
2021/09/23 00:54:04;;;;;;;75.07;30.10;;;9.20;99.90;;;;;;5116395;27;20027;-66
2021/09/23 00:56:31;;;;;;;66.47;28.00;;;9.10;99.90;;;;;;5107416;27;20023;-66
2021/09/23 00:58:57;;;;;;;72.45;29.60;;;9.00;99.90;;;;;;5115294;28;20023;-66
2021/09/23 01:01:23;;;;;;;74.80;30.70;;;9.00;99.90;;;;;;5108953;27;20111;-66
2021/09/23 01:03:49;;;;;;;70.93;30.02;;;8.90;99.90;;;;;;5116163;28;20079;-66
2021/09/23 01:06:15;;;;;;;74.18;32.13;;;8.80;99.90;;;;;;5105861;28;20174;-66
2021/09/23 01:08:51;;;;;;;76.78;31.98;;;8.80;99.90;;;;;;5111428;27;20444;-66
2021/09/23 01:11:16;;;;;;;88.00;34.35;;;8.90;99.90;;;;;;5116546;28;20048;-66
2021/09/23 01:13:42;;;;;;;80.85;32.88;;;8.90;99.90;;;;;;5113633;28;20102;-65
2021/09/23 01:16:10;;;;;;;84.60;33.78;;;9.10;99.90;;;;;;5108199;28;20096;-66
2021/09/23 01:18:36;;;;;;;82.20;34.03;;;9.20;99.90;;;;;;5115727;27;20144;-66
2021/09/23 01:21:05;;;;;;;87.45;34.90;;;9.30;99.90;;;;;;5119725;27;20110;-65
2021/09/23 01:23:43;;;;;;;80.97;33.50;;;9.30;99.90;;;;;;5123279;27;20141;-65
2021/09/23 01:26:11;;;;;;;78.10;32.47;;;9.40;99.90;;;;;;5113530;27;20093;-66
2021/09/23 01:28:39;;;;;;;76.18;32.25;;;9.40;99.90;;;;;;5120468;27;20024;-67
2021/09/23 01:31:05;;;;;;;74.65;31.27;;;9.60;99.90;;;;;;5111545;27;20011;-66
2021/09/23 01:33:31;;;;;;;69.22;30.65;;;9.60;99.90;;;;;;5117008;27;20047;-65
2021/09/23 01:35:59;;;;;;;76.43;30.90;;;9.50;99.90;;;;;;5119575;27;20107;-66
2021/09/23 01:38:26;;;;;;;65.78;31.63;;;9.70;99.90;;;;;;5117762;27;20054;-66
2021/09/23 01:40:52;;;;;;;71.72;30.27;;;9.80;99.90;;;;;;5120737;27;20020;-66
2021/09/23 01:43:18;;;;;;;60.53;27.25;;;9.70;99.90;;;;;;5125201;27;20023;-67
2021/09/23 01:45:45;;;;;;;62.83;26.25;;;9.50;99.90;;;;;;5121168;27;20585;-66
2021/09/23 01:48:10;;;;;;;55.55;26.20;;;9.50;99.90;;;;;;5117912;27;20019;-66
2021/09/23 01:50:36;;;;;;;56.50;25.75;;;9.50;99.90;;;;;;5118309;27;20034;-66
2021/09/23 01:53:02;;;;;;;58.80;25.77;;;9.60;99.90;;;;;;5116486;27;20034;-66
2021/09/23 01:55:27;;;;;;;49.45;21.98;;;9.90;99.90;;;;;;5118471;27;20445;-66
2021/09/23 01:57:53;;;;;;;49.03;23.02;;;10.20;99.90;;;;;;5120991;27;20023;-66
2021/09/23 02:00:19;;;;;;;46.15;23.33;;;10.40;99.90;;;;;;5121701;27;20432;-66
2021/09/23 02:02:44;;;;;;;46.25;21.77;;;10.50;99.90;;;;;;5109293;27;20031;-66
2021/09/23 02:05:10;;;;;;;43.67;20.42;;;10.40;99.90;;;;;;5117735;27;20105;-66
2021/09/23 02:07:36;;;;;;;38.78;20.02;;;10.20;99.90;;;;;;5114564;27;20090;-66
2021/09/23 02:10:03;;;;;;;40.00;19.52;;;10.40;99.90;;;;;;5112800;27;20063;-66
2021/09/23 02:12:29;;;;;;;37.55;18.80;;;10.30;99.90;;;;;;5118648;27;20027;-65
2021/09/23 02:14:54;;;;;;;36.65;19.00;;;10.40;99.90;;;;;;5112736;27;20379;-66
2021/09/23 02:17:20;;;;;;;39.15;17.33;;;10.30;99.90;;;;;;5120450;27;20095;-65
2021/09/23 02:19:45;;;;;;;39.78;18.08;;;10.20;99.90;;;;;;5126964;27;20027;-66
2021/09/23 02:22:11;;;;;;;36.33;17.85;;;10.20;99.90;;;;;;5115791;27;20030;-66
2021/09/23 02:24:36;;;;;;;32.13;15.88;;;10.10;99.90;;;;;;5124078;27;20034;-66
2021/09/23 02:27:02;;;;;;;33.33;15.70;;;10.00;99.90;;;;;;5122776;27;20475;-65
2021/09/23 02:29:28;;;;;;;35.63;17.38;;;9.90;99.90;;;;;;5116197;27;20376;-65
2021/09/23 02:31:53;;;;;;;34.42;17.05;;;9.80;99.90;;;;;;5123135;27;20028;-65
2021/09/23 02:34:19;;;;;;;36.47;16.42;;;9.80;99.90;;;;;;5112864;27;20023;-66
2021/09/23 02:36:45;;;;;;;34.35;16.17;;;9.90;99.90;;;;;;5126999;27;20046;-66
2021/09/23 02:39:11;;;;;;;31.98;15.73;;;9.70;99.90;;;;;;5111366;27;20027;-66
2021/09/23 02:41:37;;;;;;;32.70;16.73;;;9.80;99.90;;;;;;5114155;27;20024;-65
2021/09/23 02:44:03;;;;;;;36.22;16.45;;;9.90;99.90;;;;;;5123311;27;20100;-66
2021/09/23 02:46:31;;;;;;;39.28;17.90;;;9.80;99.90;;;;;;5126263;27;20023;-66
2021/09/23 02:48:57;;;;;;;38.90;18.15;;;9.60;99.90;;;;;;5125236;27;20023;-65
2021/09/23 02:51:23;;;;;;;39.97;18.45;;;9.50;99.90;;;;;;5118693;27;20039;-65
2021/09/23 02:53:49;;;;;;;38.80;18.40;;;9.40;99.90;;;;;;5121555;27;20063;-66
2021/09/23 02:56:16;;;;;;;39.85;19.25;;;9.30;99.90;;;;;;5127877;27;20093;-66
2021/09/23 02:58:43;;;;;;;40.72;17.60;;;9.20;99.90;;;;;;5125760;27;20242;-66
2021/09/23 03:01:08;;;;;;;36.00;17.40;;;9.10;99.90;;;;;;5109893;27;20016;-66
2021/09/23 03:03:34;;;;;;;42.67;18.27;;;9.00;99.90;;;;;;5114091;27;20027;-66
2021/09/23 03:05:59;;;;;;;36.42;17.50;;;9.10;99.90;;;;;;5111389;27;20028;-66
2021/09/23 03:08:25;;;;;;;39.28;17.80;;;9.00;99.90;;;;;;5116682;27;21045;-66
2021/09/23 03:10:51;;;;;;;35.03;17.38;;;9.10;99.90;;;;;;5112409;27;20007;-65
2021/09/23 03:13:16;;;;;;;32.42;14.55;;;9.10;99.90;;;;;;5114011;27;20027;-65
2021/09/23 03:15:42;;;;;;;34.60;16.70;;;9.20;99.90;;;;;;5120318;27;20562;-66
2021/09/23 03:18:07;;;;;;;43.10;19.23;;;9.30;99.90;;;;;;5117666;27;20023;-65
2021/09/23 03:20:33;;;;;;;39.95;18.27;;;9.40;99.90;;;;;;5118213;27;20043;-66
2021/09/23 03:23:00;;;;;;;38.30;17.45;;;9.30;99.90;;;;;;5113974;27;20023;-66
2021/09/23 03:25:28;;;;;;;27.35;13.05;;;9.50;99.90;;;;;;5116897;27;20062;-66
2021/09/23 03:27:54;;;;;;;22.23;11.57;;;9.90;99.90;;;;;;5108202;27;20032;-65
2021/09/23 03:30:20;;;;;;;21.75;9.85;;;11.00;99.90;;;;;;5112840;27;20452;-66
2021/09/23 03:32:46;;;;;;;20.50;9.20;;;10.90;99.90;;;;;;5115715;27;20386;-66
2021/09/23 03:35:11;;;;;;;20.67;9.13;;;11.20;99.90;;;;;;5112577;27;20022;-66
2021/09/23 03:37:37;;;;;;;19.90;8.18;;;11.40;99.90;;;;;;5116527;27;20414;-65
2021/09/23 03:40:05;;;;;;;17.90;7.85;;;11.60;99.90;;;;;;5117807;27;20493;-66
2021/09/23 03:42:31;;;;;;;22.42;8.30;;;11.50;99.90;;;;;;5111469;27;20433;-66
2021/09/23 03:44:56;;;;;;;19.92;7.95;;;11.60;99.90;;;;;;5116997;27;20023;-66
2021/09/23 03:47:22;;;;;;;17.52;7.93;;;11.50;99.90;;;;;;5112499;27;20430;-67
2021/09/23 03:49:48;;;;;;;20.45;8.70;;;11.60;99.90;;;;;;5114534;27;20028;-65
2021/09/23 03:52:13;;;;;;;16.80;6.80;;;11.60;99.90;;;;;;5113515;27;20030;-66
2021/09/23 03:54:39;;;;;;;22.75;7.57;;;11.50;99.90;;;;;;5121361;27;20084;-66
2021/09/23 03:57:04;;;;;;;20.92;7.32;;;11.50;99.90;;;;;;5121662;27;20028;-65
2021/09/23 03:59:30;;;;;;;12.27;5.63;;;11.50;99.90;;;;;;5117234;27;20019;-66
2021/09/23 04:01:56;;;;;;;16.65;6.55;;;11.50;99.90;;;;;;5107973;27;20031;-66
2021/09/23 04:04:21;;;;;;;14.70;5.47;;;11.60;99.90;;;;;;5116319;27;20432;-66
2021/09/23 04:06:47;;;;;;;13.55;5.65;;;11.60;99.90;;;;;;5117169;27;20047;-66
2021/09/23 04:09:13;;;;;;;10.98;4.28;;;11.50;99.90;;;;;;5108323;27;20029;-66
2021/09/23 04:11:40;;;;;;;12.15;4.72;;;11.30;99.90;;;;;;5110619;27;20469;-66
2021/09/23 04:14:06;;;;;;;11.52;3.85;;;11.30;99.90;;;;;;5115778;27;20139;-66
2021/09/23 04:16:33;;;;;;;9.70;3.97;;;11.30;99.90;;;;;;5114060;27;20019;-65
2021/09/23 04:18:59;;;;;;;12.10;4.85;;;11.40;99.90;;;;;;5114827;27;20122;-65
2021/09/23 04:21:25;;;;;;;10.13;3.95;;;11.60;99.90;;;;;;5109062;28;20431;-66
2021/09/23 04:23:51;;;;;;;11.57;4.30;;;11.50;99.90;;;;;;5119514;27;20027;-66
2021/09/23 04:26:16;;;;;;;10.48;4.50;;;11.40;99.90;;;;;;5109502;27;20429;-66
2021/09/23 04:28:42;;;;;;;10.30;4.30;;;11.40;99.90;;;;;;5108134;28;20035;-66
2021/09/23 04:31:08;;;;;;;8.90;4.10;;;11.50;99.90;;;;;;5115089;27;20028;-66
2021/09/23 04:33:33;;;;;;;8.93;3.72;;;11.70;99.90;;;;;;5108629;28;20099;-67
2021/09/23 04:35:59;;;;;;;11.75;4.38;;;11.80;99.90;;;;;;5112314;27;20028;-66
2021/09/23 04:38:24;;;;;;;9.82;3.70;;;11.80;99.90;;;;;;5109374;27;20028;-66
2021/09/23 04:40:50;;;;;;;8.05;2.95;;;11.70;99.90;;;;;;5112283;27;20121;-66
2021/09/23 04:43:16;;;;;;;7.70;2.95;;;11.70;99.90;;;;;;5107479;28;20030;-66
2021/09/23 04:45:42;;;;;;;10.68;3.90;;;11.70;99.90;;;;;;5114801;27;20038;-65
2021/09/23 04:48:08;;;;;;;10.30;3.78;;;11.90;99.90;;;;;;5116024;27;20031;-67
2021/09/23 04:50:34;;;;;;;5.07;2.25;;;11.80;99.90;;;;;;5110986;28;20031;-66
2021/09/23 04:53:00;;;;;;;7.57;2.85;;;11.90;99.90;;;;;;5115490;27;20028;-65
2021/09/23 04:55:27;;;;;;;8.85;3.50;;;11.90;99.90;;;;;;5120085;27;20391;-66
2021/09/23 04:57:53;;;;;;;7.72;3.15;;;11.90;99.90;;;;;;5110040;27;20035;-66
2021/09/23 05:00:19;;;;;;;9.02;2.85;;;11.80;99.90;;;;;;5113581;28;20015;-66
2021/09/23 05:02:47;;;;;;;7.70;2.65;;;11.90;99.90;;;;;;5097511;28;20028;-66
2021/09/23 05:05:13;;;;;;;5.85;2.33;;;11.80;99.90;;;;;;5106340;28;20031;-66
2021/09/23 05:07:39;;;;;;;6.57;2.88;;;11.80;99.90;;;;;;5114046;27;20485;-66
2021/09/23 05:10:05;;;;;;;5.75;2.33;;;11.90;99.90;;;;;;5107340;28;20024;-66
2021/09/23 05:12:30;;;;;;;4.63;1.77;;;11.80;99.90;;;;;;5109970;28;20028;-66
2021/09/23 05:14:57;;;;;;;8.55;3.40;;;11.90;99.90;;;;;;5104464;28;20023;-65
2021/09/23 05:17:22;;;;;;;7.13;2.22;;;11.90;99.90;;;;;;5108722;28;20051;-66
2021/09/23 05:19:48;;;;;;;8.85;2.95;;;12.00;99.90;;;;;;5110541;28;20047;-66
2021/09/23 05:22:14;;;;;;;7.40;2.88;;;12.10;99.90;;;;;;5108664;28;20050;-66
2021/09/23 05:24:40;;;;;;;5.00;2.03;;;12.00;99.90;;;;;;5118289;28;20356;-66
2021/09/23 05:27:06;;;;;;;4.25;1.67;;;11.90;99.90;;;;;;5110082;28;20087;-66
2021/09/23 05:29:32;;;;;;;7.50;2.63;;;12.00;99.90;;;;;;5115259;28;20122;-66
2021/09/23 05:31:57;;;;;;;1.80;1.13;;;12.10;99.90;;;;;;5108304;28;20105;-66
2021/09/23 05:34:24;;;;;;;4.88;2.00;;;12.10;99.90;;;;;;5111229;28;20042;-66
2021/09/23 05:36:49;;;;;;;8.93;2.83;;;12.10;99.90;;;;;;5110054;28;20016;-66
2021/09/23 05:39:15;;;;;;;8.60;3.15;;;12.00;99.90;;;;;;5106368;28;20054;-66
2021/09/23 05:41:41;;;;;;;3.42;1.80;;;12.10;99.90;;;;;;5108315;28;20097;-66
2021/09/23 05:44:10;;;;;;;6.25;2.63;;;12.10;99.90;;;;;;5110309;28;20019;-66
2021/09/23 05:46:36;;;;;;;4.80;2.05;;;12.10;99.90;;;;;;5117472;28;20039;-66
2021/09/23 05:49:02;;;;;;;4.78;1.95;;;12.10;99.90;;;;;;5106628;28;20020;-66
2021/09/23 05:51:28;;;;;;;6.03;2.60;;;12.10;99.90;;;;;;5115201;28;20583;-66
2021/09/23 05:53:54;;;;;;;4.82;1.95;;;12.10;99.90;;;;;;5117261;28;20041;-66
2021/09/23 05:56:20;;;;;;;4.32;1.80;;;12.20;99.90;;;;;;5114519;28;20023;-65
2021/09/23 05:58:45;;;;;;;5.97;2.22;;;12.30;99.90;;;;;;5110389;28;20024;-66
2021/09/23 06:01:14;;;;;;;6.95;2.72;;;12.30;99.90;;;;;;5112332;27;20019;-66
2021/09/23 06:03:39;;;;;;;6.28;2.47;;;12.30;99.90;;;;;;5109582;27;20094;-66
2021/09/23 06:06:05;;;;;;;7.72;2.20;;;12.30;99.90;;;;;;5109454;28;20122;-66
2021/09/23 06:08:31;;;;;;;7.47;2.92;;;12.20;99.90;;;;;;5114571;27;20081;-67
2021/09/23 06:10:56;;;;;;;5.07;1.85;;;12.30;99.90;;;;;;5117277;27;20422;-65
2021/09/23 06:13:22;;;;;;;4.70;2.08;;;12.40;99.90;;;;;;5110996;28;20487;-66
2021/09/23 06:15:50;;;;;;;4.95;1.75;;;12.50;99.90;;;;;;5117604;27;20019;-65
2021/09/23 06:18:16;;;;;;;5.20;2.38;;;12.60;99.90;;;;;;5114838;27;20111;-66
2021/09/23 06:20:43;;;;;;;5.78;1.90;;;12.60;99.90;;;;;;5108870;27;20024;-65
2021/09/23 06:23:09;;;;;;;6.68;2.63;;;12.60;99.90;;;;;;5113828;27;20026;-65
2021/09/23 06:25:37;;;;;;;6.32;2.55;;;12.70;99.90;;;;;;5125939;27;20058;-66
2021/09/23 06:28:03;;;;;;;10.43;1.80;;;12.70;99.90;;;;;;5113089;27;20023;-65
2021/09/23 06:30:28;;;;;;;4.93;1.95;;;12.90;99.90;;;;;;5115501;27;20115;-65
2021/09/23 06:32:54;;;;;;;5.07;1.65;;;12.90;99.90;;;;;;5117636;27;20332;-66
2021/09/23 06:35:20;;;;;;;6.25;2.20;;;13.00;99.90;;;;;;5113264;27;20030;-66
2021/09/23 06:37:47;;;;;;;7.68;2.80;;;13.00;99.90;;;;;;5109188;27;20080;-65
2021/09/23 06:40:13;;;;;;;5.78;2.55;;;13.10;99.90;;;;;;5109568;28;20316;-66
2021/09/23 06:42:41;;;;;;;6.43;1.98;;;13.20;99.90;;;;;;5118755;27;20023;-66
2021/09/23 06:45:07;;;;;;;5.13;1.95;;;13.20;99.90;;;;;;5126370;27;20022;-66
2021/09/23 06:47:33;;;;;;;5.47;2.25;;;13.30;99.90;;;;;;5119865;27;20031;-65
2021/09/23 06:49:59;;;;;;;4.07;2.00;;;13.30;99.90;;;;;;5110626;27;20459;-65
2021/09/23 06:52:25;;;;;;;4.90;1.75;;;13.40;99.90;;;;;;5119615;27;20031;-65
2021/09/23 06:54:51;;;;;;;5.25;2.03;;;13.40;99.90;;;;;;5119417;27;20406;-65
2021/09/23 06:57:17;;;;;;;5.55;1.85;;;13.40;99.90;;;;;;5111820;27;20610;-66
2021/09/23 06:59:43;;;;;;;4.45;1.73;;;13.50;99.90;;;;;;5118127;27;20031;-66
2021/09/23 07:02:08;;;;;;;5.18;2.00;;;13.50;99.90;;;;;;5110124;27;20034;-66
2021/09/23 07:04:34;;;;;;;4.57;1.83;;;13.60;99.90;;;;;;5113549;27;20053;-65
2021/09/23 07:07:00;;;;;;;2.42;1.02;;;13.60;99.90;;;;;;5117933;27;20051;-66
2021/09/23 07:09:25;;;;;;;6.72;2.42;;;13.70;99.90;;;;;;5110123;27;20136;-66
2021/09/23 07:11:51;;;;;;;7.88;2.45;;;13.90;99.90;;;;;;5114850;27;20440;-66
2021/09/23 07:14:16;;;;;;;6.63;2.45;;;13.90;99.90;;;;;;5122400;27;20023;-65
2021/09/23 07:16:42;;;;;;;3.05;1.30;;;14.00;99.90;;;;;;5112607;27;20069;-65
2021/09/23 07:19:08;;;;;;;4.63;1.80;;;14.10;99.90;;;;;;5111292;27;20066;-65
2021/09/23 07:21:33;;;;;;;4.20;1.75;;;14.30;99.90;;;;;;5116086;27;20027;-65
2021/09/23 07:23:59;;;;;;;5.53;1.92;;;14.40;99.90;;;;;;5114011;27;20038;-65
2021/09/23 07:26:25;;;;;;;3.15;1.35;;;14.50;99.90;;;;;;5113787;27;20020;-65
2021/09/23 07:28:50;;;;;;;4.97;1.80;;;14.60;99.90;;;;;;5114358;27;20039;-65
2021/09/23 07:31:16;;;;;;;7.25;2.53;;;14.80;99.90;;;;;;5119374;27;20367;-67
2021/09/23 07:33:44;;;;;;;4.72;2.00;;;14.80;99.90;;;;;;5116957;27;20059;-66
2021/09/23 07:36:10;;;;;;;7.70;2.80;;;14.90;99.90;;;;;;5114920;27;20115;-66
2021/09/23 07:38:36;;;;;;;6.90;2.10;;;15.00;99.90;;;;;;5114692;27;20106;-66
2021/09/23 07:41:01;;;;;;;4.80;1.65;;;15.10;99.90;;;;;;5111112;27;20024;-66
2021/09/23 07:43:27;;;;;;;4.45;1.42;;;15.20;99.90;;;;;;5109617;27;20020;-65
2021/09/23 07:45:53;;;;;;;4.15;1.50;;;15.30;99.90;;;;;;5112221;27;20031;-66
2021/09/23 07:48:19;;;;;;;3.17;1.45;;;15.40;99.90;;;;;;5114566;27;20107;-66
2021/09/23 07:50:45;;;;;;;7.03;1.98;;;15.40;99.90;;;;;;5115417;27;20023;-66
2021/09/23 07:53:11;;;;;;;8.45;1.75;;;15.60;99.90;;;;;;5113933;27;20027;-66
2021/09/23 07:55:36;;;;;;;3.63;1.52;;;15.70;99.90;;;;;;5117750;27;20011;-67
2021/09/23 07:58:02;;;;;;;2.88;1.20;;;15.80;99.90;;;;;;5118717;27;20023;-66
2021/09/23 08:00:28;;;;;;;6.82;1.75;;;15.70;99.90;;;;;;5108971;27;20493;-66
2021/09/23 08:02:53;;;;;;;2.63;1.20;;;15.70;99.90;;;;;;5107560;27;20034;-65
2021/09/23 08:05:19;;;;;;;6.68;2.00;;;15.90;99.90;;;;;;5121791;27;20020;-66
2021/09/23 08:07:46;;;;;;;1.95;1.10;;;16.00;99.90;;;;;;5120225;27;20395;-67
2021/09/23 08:10:12;;;;;;;3.60;1.50;;;16.20;99.90;;;;;;5106938;27;20588;-66
2021/09/23 08:12:38;;;;;;;1.00;0.80;;;16.20;99.90;;;;;;5125621;27;20121;-65
2021/09/23 08:15:05;;;;;;;5.07;1.90;;;16.00;99.90;;;;;;5115685;27;20472;-65
2021/09/23 08:17:31;;;;;;;4.38;2.20;;;16.00;99.90;;;;;;5116179;27;20063;-65
2021/09/23 08:19:57;;;;;;;3.25;1.42;;;16.00;99.90;;;;;;5114434;27;20015;-65
2021/09/23 08:22:22;;;;;;;6.63;1.90;;;16.10;99.90;;;;;;5112120;27;20477;-66
2021/09/23 08:24:48;;;;;;;8.23;4.53;;;16.40;99.90;;;;;;5121160;27;20379;-66
2021/09/23 08:27:14;;;;;;;6.55;2.30;;;16.70;99.90;;;;;;5111098;28;20486;-66
2021/09/23 08:29:40;;;;;;;4.10;1.83;;;17.40;99.90;;;;;;5116300;27;20023;-66
2021/09/23 08:32:06;;;;;;;5.50;1.73;;;17.50;99.90;;;;;;5107762;27;20020;-66
2021/09/23 08:34:31;;;;;;;6.47;2.70;;;17.80;99.90;;;;;;5111020;27;20052;-66
2021/09/23 08:36:57;;;;;;;3.58;1.55;;;17.70;99.90;;;;;;5110375;27;20051;-66
2021/09/23 08:39:22;;;;;;;4.93;1.65;;;17.90;99.90;;;;;;5117622;27;20031;-66
2021/09/23 08:41:49;;;;;;;5.32;1.42;;;18.10;99.90;;;;;;5117614;27;20055;-66
2021/09/23 08:44:15;;;;;;;4.35;1.48;;;18.50;99.90;;;;;;5107726;28;20020;-67
2021/09/23 08:46:42;;;;;;;5.47;1.67;;;18.60;99.90;;;;;;5109085;27;20032;-66
2021/09/23 08:49:10;;;;;;;6.53;2.30;;;18.60;99.90;;;;;;5106956;28;20028;-66
2021/09/23 08:51:36;;;;;;;5.13;1.75;;;18.70;99.90;;;;;;5115867;27;20019;-67
2021/09/23 08:54:03;;;;;;;6.43;1.88;;;19.50;99.90;;;;;;5125014;27;20015;-66
2021/09/23 08:56:29;;;;;;;6.55;2.15;;;19.70;99.90;;;;;;5113616;27;20019;-66
2021/09/23 08:58:54;;;;;;;6.20;1.95;;;19.20;99.90;;;;;;5119852;27;20030;-66
2021/09/23 09:01:21;;;;;;;4.28;1.63;;;19.00;99.90;;;;;;5115581;27;20427;-66
2021/09/23 09:03:58;;;;;;;2.42;0.95;;;19.20;99.90;;;;;;5111515;27;20008;-66
2021/09/23 09:06:23;;;;;;;1.92;0.88;;;19.30;99.90;;;;;;5109182;28;20453;-66
2021/09/23 09:08:49;;;;;;;2.20;1.10;;;19.10;99.90;;;;;;5110142;27;20046;-66
2021/09/23 09:11:15;;;;;;;4.05;1.42;;;19.20;99.90;;;;;;5106816;28;20012;-66
2021/09/23 09:13:46;;;;;;;2.10;1.02;;;19.40;99.90;;;;;;5116022;28;20030;-66
2021/09/23 09:16:14;;;;;;;4.65;1.50;;;19.30;99.90;;;;;;5117426;28;20011;-66
2021/09/23 09:18:41;;;;;;;9.80;1.50;;;19.20;99.90;;;;;;5114372;28;20074;-66
2021/09/23 09:21:13;;;;;;;5.88;1.80;;;19.80;99.90;;;;;;5113761;28;20182;-66
2021/09/23 09:23:47;;;;;;;7.68;3.85;;;20.40;99.90;;;;;;5117798;28;20026;-66
2021/09/23 09:26:26;;;;;;;4.25;1.58;;;19.40;99.90;;;;;;5116266;28;20092;-67
2021/09/23 09:28:56;;;;;;;5.43;2.00;;;19.50;99.90;;;;;;5111201;28;20110;-66
2021/09/23 09:31:23;;;;;;;2.33;1.05;;;20.00;99.90;;;;;;5117799;28;20031;-66
2021/09/23 09:33:51;;;;;;;4.45;1.73;;;20.20;99.90;;;;;;5112083;27;20023;-66
2021/09/23 09:36:25;;;;;;;4.55;1.50;;;20.70;99.90;;;;;;5115563;28;20043;-66
2021/09/23 09:38:52;;;;;;;4.10;1.67;;;20.80;99.90;;;;;;5111279;28;20032;-66
2021/09/23 09:41:23;;;;;;;3.38;1.15;;;20.80;99.40;;;;;;5116306;27;20102;-66
2021/09/23 09:43:50;;;;;;;2.92;1.30;;;20.50;99.90;;;;;;5114039;27;20015;-66
2021/09/23 09:46:29;;;;;;;4.43;1.50;;;20.80;99.90;;;;;;5119361;27;20424;-66
2021/09/23 09:48:56;;;;;;;2.78;1.17;;;20.80;99.90;;;;;;5121272;27;20482;-66
2021/09/23 09:51:36;;;;;;;3.90;1.58;;;21.40;99.20;;;;;;5120108;27;20167;-67
2021/09/23 09:54:03;;;;;;;2.58;0.90;;;21.00;98.30;;;;;;5118569;27;20463;-67
2021/09/23 09:56:29;;;;;;;5.13;1.65;;;20.90;99.30;;;;;;5121397;27;20030;-66
2021/09/23 09:59:25;;;;;;;3.85;1.38;;;20.70;99.70;;;;;;5110797;27;20031;-66
2021/09/23 10:01:53;;;;;;;5.35;1.98;;;21.30;99.20;;;;;;5096410;27;20487;-66
2021/09/23 10:04:21;;;;;;;2.45;1.10;;;21.10;98.80;;;;;;5109615;28;20447;-66
2021/09/23 10:06:47;;;;;;;6.38;1.88;;;21.30;98.60;;;;;;5119189;27;20051;-66
2021/09/23 10:09:14;;;;;;;3.97;1.55;;;20.80;99.20;;;;;;5116644;27;20543;-66
2021/09/23 10:11:43;;;;;;;4.18;1.75;;;20.50;99.10;;;;;;5115227;27;20076;-66
2021/09/23 10:14:11;;;;;;;5.60;1.40;;;20.20;99.50;;;;;;5112513;27;20062;-66
2021/09/23 10:16:37;;;;;;;4.97;2.03;;;20.20;99.90;;;;;;5112828;27;20034;-66
2021/09/23 10:19:03;;;;;;;5.95;2.75;;;19.90;99.90;;;;;;5109390;27;20024;-66
2021/09/23 10:21:29;;;;;;;2.85;1.13;;;20.30;99.80;;;;;;5110684;28;20043;-66
2021/09/23 10:23:56;;;;;;;4.18;1.45;;;20.40;99.20;;;;;;5124654;27;20027;-66
2021/09/23 10:26:26;;;;;;;6.50;2.47;;;20.80;99.30;;;;;;5117579;27;20030;-66
2021/09/23 10:28:55;;;;;;;4.10;1.50;;;20.70;98.70;;;;;;5117065;27;20144;-67
2021/09/23 10:31:23;;;;;;;4.60;1.75;;;20.40;99.20;;;;;;5109183;27;20026;-66
2021/09/23 10:33:50;;;;;;;5.35;1.88;;;20.60;99.20;;;;;;5118465;27;20027;-67
2021/09/23 10:36:20;;;;;;;4.78;1.50;;;20.90;98.90;;;;;;5109344;28;20443;-66
2021/09/23 10:38:46;;;;;;;1.75;0.73;;;20.90;98.70;;;;;;5111072;27;20016;-67
2021/09/23 10:41:13;;;;;;;5.38;1.60;;;21.10;98.00;;;;;;5112998;27;20491;-67
2021/09/23 10:43:40;;;;;;;1.77;1.17;;;20.70;98.40;;;;;;5125353;27;20030;-66
2021/09/23 10:46:06;;;;;;;5.97;1.83;;;20.80;98.90;;;;;;5117207;27;20031;-66
2021/09/23 10:48:37;;;;;;;4.28;1.60;;;21.10;98.60;;;;;;5116126;27;20027;-67
2021/09/23 10:51:05;;;;;;;4.13;1.70;;;21.50;97.40;;;;;;5117543;27;20087;-66
2021/09/23 10:53:33;;;;;;;3.95;1.48;;;22.00;96.70;;;;;;5119258;27;20026;-66
2021/09/23 10:56:07;;;;;;;4.10;1.48;;;22.80;96.10;;;;;;5122324;27;20023;-67
2021/09/23 10:58:34;;;;;;;2.63;1.15;;;23.40;94.80;;;;;;5117733;27;20035;-66
2021/09/23 11:01:03;;;;;;;3.47;1.10;;;23.40;94.00;;;;;;5110744;27;20034;-67
2021/09/23 11:03:39;;;;;;;3.67;1.33;;;23.10;94.50;;;;;;5111634;27;20061;-66
2021/09/23 11:06:09;;;;;;;4.68;1.70;;;22.60;94.10;;;;;;5116241;27;20039;-66
2021/09/23 11:08:44;;;;;;;6.43;1.83;;;22.00;95.60;;;;;;5112924;27;20531;-66
2021/09/23 11:11:11;;;;;;;4.82;1.63;;;22.50;95.50;;;;;;5116245;27;20110;-66
2021/09/23 11:13:39;;;;;;;5.13;1.50;;;23.30;93.60;;;;;;5112203;27;20374;-66
2021/09/23 11:16:11;;;;;;;4.75;1.65;;;23.60;93.00;;;;;;5118788;27;20084;-67
2021/09/23 11:18:37;;;;;;;3.47;1.30;;;23.60;93.20;;;;;;5113742;27;20020;-67
2021/09/23 11:21:05;;;;;;;6.53;2.38;;;24.10;92.50;;;;;;5117119;27;20111;-66
2021/09/23 11:23:32;;;;;;;3.85;1.25;;;23.70;92.10;;;;;;5111970;27;20041;-67
2021/09/23 11:25:59;;;;;;;3.03;1.08;;;23.90;91.40;;;;;;5119136;27;20483;-66
2021/09/23 11:28:25;;;;;;;4.47;1.88;;;23.70;91.50;;;;;;5108940;28;20108;-66
2021/09/23 11:30:52;;;;;;;4.55;1.55;;;23.80;91.20;;;;;;5110993;27;20435;-66
2021/09/23 11:33:21;;;;;;;6.80;2.38;;;23.50;90.80;;;;;;5108542;28;20050;-66
2021/09/23 11:35:47;;;;;;;4.18;1.23;;;23.90;90.80;;;;;;5109261;27;20022;-67
2021/09/23 11:38:20;;;;;;;3.50;1.35;;;23.80;90.70;;;;;;5114504;27;20433;-66
2021/09/23 11:40:48;;;;;;;3.45;1.02;;;24.00;89.80;;;;;;5106812;28;20023;-66
2021/09/23 11:43:18;;;;;;;4.20;1.90;;;23.60;90.30;;;;;;5111702;27;20024;-66
2021/09/23 11:45:49;;;;;;;2.03;0.73;;;23.30;90.00;;;;;;5123103;27;20102;-67
2021/09/23 11:48:17;;;;;;;3.65;1.48;;;23.30;90.80;;;;;;5109699;27;20435;-66
2021/09/23 11:50:44;;;;;;;3.95;1.55;;;23.30;90.30;;;;;;5119043;27;20454;-66
2021/09/23 11:53:26;;;;;;;4.32;1.40;;;22.80;90.80;;;;;;5117133;27;20031;-67
2021/09/23 11:55:56;;;;;;;4.75;1.48;;;23.60;90.50;;;;;;5125519;27;20019;-66
2021/09/23 11:58:22;;;;;;;3.88;1.50;;;24.00;90.00;;;;;;5115506;27;20176;-67
2021/09/23 12:00:50;;;;;;;3.92;1.35;;;25.00;87.70;;;;;;5111170;27;20440;-67
2021/09/23 12:03:18;;;;;;;1.80;0.80;;;24.90;87.00;;;;;;5110659;27;20023;-66
2021/09/23 12:05:46;;;;;;;5.60;2.15;;;24.10;87.30;;;;;;5116115;27;20044;-66
2021/09/23 12:08:14;;;;;;;3.13;0.98;;;23.50;89.00;;;;;;5117627;27;20150;-66
2021/09/23 12:11:08;;;;;;;4.90;1.60;;;23.90;89.30;;;;;;5112989;27;20433;-68
2021/09/23 12:13:44;;;;;;;3.38;1.25;;;24.40;86.00;;;;;;5110840;27;20118;-66
2021/09/23 12:16:15;;;;;;;5.57;1.73;;;24.90;85.60;;;;;;5118011;27;20015;-66
2021/09/23 12:18:43;;;;;;;5.30;1.60;;;25.30;85.30;;;;;;5110687;27;20066;-66
2021/09/23 12:21:15;;;;;;;5.63;1.73;;;24.10;88.50;;;;;;5105516;28;20038;-68
2021/09/23 12:23:46;;;;;;;4.28;1.42;;;24.30;87.20;;;;;;5112653;27;20027;-66
2021/09/23 12:26:26;;;;;;;3.35;1.10;;;24.50;88.60;;;;;;5114505;27;20024;-66
2021/09/23 12:29:03;;;;;;;3.28;1.35;;;24.00;88.80;;;;;;5107359;28;20490;-66
2021/09/23 12:31:43;;;;;;;4.05;1.58;;;23.70;90.30;;;;;;5107540;27;20071;-67
2021/09/23 12:34:20;;;;;;;6.30;1.90;;;23.90;90.30;;;;;;5115755;27;20023;-66
2021/09/23 12:36:48;;;;;;;2.28;0.95;;;24.70;88.70;;;;;;5123917;27;20076;-67
2021/09/23 12:39:19;;;;;;;2.25;0.80;;;25.20;86.70;;;;;;5106480;27;20059;-67
2021/09/23 12:41:51;;;;;;;3.47;1.23;;;25.30;86.10;;;;;;5115465;27;20024;-66